Copperhill, Tennessee
Current Conditions -  °F | °C
As of 12:35 PM on Tuesday 21 Oct 2014 (Local Time) from KRZR Reporting Station
Few Clouds Few Clouds  
Wind Chill: 66°   Ceiling: Unl
Heat Index: 66°   Visibility: 10mi
Dew Point: 46°   Wind: 9mph
Humidity: 49%   Direction: 300°WNW
Pressure: 30.05"   Gusts: NA
Location:  34.99°N, 84.37°W
Report Text: KRZR 211635Z AUTO 30008KT 270V360 10SM FEW041 19/08 A3005 RMK
Loading
Personal Weather Stations






























Interactive Weather Map New forecast layout! Learn more

10-Day Weather Forecast

Advertisements
Track Severe Weather on mobile